ADDS METAR Data INFO
IDs: Format: Raw Decoded Include TAF

Data at: 1154 UTC 23 Jun 2018

METAR for:KDAB (Daytona Beach Intl, FL, US)
Text:KDAB 231053Z 21003KT 6SM BR FEW150 SCT250 24/24 A2998 RMK AO2 SLP152 T02390239
Temperature: 23.9°C ( 75°F)
Dewpoint: 23.9°C ( 75°F) [RH = 100%]
Pressure (altimeter):29.98 inches Hg (1015.3 mb) [Sea level pressure: 1015.2 mb]
Winds:from the SSW (210 degrees) at 3 MPH (3 knots; 1.5 m/s)
Visibility: 6 sm ( 10 km)
Ceiling:at least 12,000 feet AGL
Clouds: few clouds at 15000 feet AGL, scattered clouds at 25000 feet AGL
Weather:BR (mist)